sensor_id;sensor_type;location;lat;lon;timestamp;P1;durP1;ratioP1;P2;durP2;ratioP2
62994;SDS011;49086;52.300;4.850;2022-07-06T00:01:49;4.22;;;0.95;;
62994;SDS011;49086;52.300;4.850;2022-07-06T00:04:22;4.38;;;0.90;;
62994;SDS011;49086;52.300;4.850;2022-07-06T00:06:52;4.93;;;1.17;;
62994;SDS011;49086;52.300;4.850;2022-07-06T00:09:25;2.25;;;0.90;;
62994;SDS011;49086;52.300;4.850;2022-07-06T00:12:12;5.35;;;1.40;;
62994;SDS011;49086;52.300;4.850;2022-07-06T00:14:39;2.33;;;1.00;;
62994;SDS011;49086;52.300;4.850;2022-07-06T00:17:26;3.67;;;0.90;;
62994;SDS011;49086;52.300;4.850;2022-07-06T00:20:24;4.25;;;1.08;;
62994;SDS011;49086;52.300;4.850;2022-07-06T00:22:59;3.35;;;0.90;;
62994;SDS011;49086;52.300;4.850;2022-07-06T00:25:34;2.17;;;0.77;;
62994;SDS011;49086;52.300;4.850;2022-07-06T00:28:04;2.58;;;0.93;;
62994;SDS011;49086;52.300;4.850;2022-07-06T00:30:41;3.58;;;1.23;;
62994;SDS011;49086;52.300;4.850;2022-07-06T00:33:17;1.10;;;0.77;;
62994;SDS011;49086;52.300;4.850;2022-07-06T00:36:13;3.33;;;0.88;;
62994;SDS011;49086;52.300;4.850;2022-07-06T00:38:56;5.15;;;0.93;;
62994;SDS011;49086;52.300;4.850;2022-07-06T00:41:29;3.87;;;0.90;;
62994;SDS011;49086;52.300;4.850;2022-07-06T00:44:48;5.57;;;1.05;;
62994;SDS011;49086;52.300;4.850;2022-07-06T00:47:20;5.00;;;1.05;;
62994;SDS011;49086;52.300;4.850;2022-07-06T00:50:17;5.97;;;1.52;;
62994;SDS011;49086;52.300;4.850;2022-07-06T00:53:05;2.25;;;0.90;;
62994;SDS011;49086;52.300;4.850;2022-07-06T00:55:50;3.50;;;0.82;;
62994;SDS011;49086;52.300;4.850;2022-07-06T00:58:17;4.43;;;0.80;;
62994;SDS011;49086;52.300;4.850;2022-07-06T01:00:48;3.03;;;0.90;;
62994;SDS011;49086;52.300;4.850;2022-07-06T01:03:18;3.67;;;1.00;;
62994;SDS011;49086;52.300;4.850;2022-07-06T01:05:46;2.90;;;1.00;;
62994;SDS011;49086;52.300;4.850;2022-07-06T01:08:33;4.07;;;1.10;;
62994;SDS011;49086;52.300;4.850;2022-07-06T01:11:19;3.53;;;0.88;;
62994;SDS011;49086;52.300;4.850;2022-07-06T01:13:48;5.82;;;1.00;;
62994;SDS011;49086;52.300;4.850;2022-07-06T01:16:20;3.63;;;0.75;;
62994;SDS011;49086;52.300;4.850;2022-07-06T01:18:49;3.88;;;1.15;;
62994;SDS011;49086;52.300;4.850;2022-07-06T01:21:15;2.78;;;0.60;;
62994;SDS011;49086;52.300;4.850;2022-07-06T01:24:09;4.20;;;0.80;;
62994;SDS011;49086;52.300;4.850;2022-07-06T01:26:40;2.07;;;0.70;;
62994;SDS011;49086;52.300;4.850;2022-07-06T01:29:08;4.85;;;0.85;;
62994;SDS011;49086;52.300;4.850;2022-07-06T01:31:49;7.18;;;1.10;;
62994;SDS011;49086;52.300;4.850;2022-07-06T01:34:19;1.65;;;0.80;;
62994;SDS011;49086;52.300;4.850;2022-07-06T01:36:55;1.70;;;0.70;;
62994;SDS011;49086;52.300;4.850;2022-07-06T01:39:42;3.55;;;0.80;;
62994;SDS011;49086;52.300;4.850;2022-07-06T01:44:43;3.00;;;0.80;;
62994;SDS011;49086;52.300;4.850;2022-07-06T01:47:54;2.83;;;0.80;;
62994;SDS011;49086;52.300;4.850;2022-07-06T01:50:34;2.30;;;0.73;;
62994;SDS011;49086;52.300;4.850;2022-07-06T01:53:11;4.15;;;0.85;;
62994;SDS011;49086;52.300;4.850;2022-07-06T01:55:40;6.03;;;0.90;;
62994;SDS011;49086;52.300;4.850;2022-07-06T01:58:26;2.47;;;0.70;;
62994;SDS011;49086;52.300;4.850;2022-07-06T02:00:57;4.70;;;0.90;;
62994;SDS011;49086;52.300;4.850;2022-07-06T02:03:26;2.78;;;0.90;;
62994;SDS011;49086;52.300;4.850;2022-07-06T02:05:56;2.20;;;0.82;;
62994;SDS011;49086;52.300;4.850;2022-07-06T02:08:35;4.15;;;0.90;;
62994;SDS011;49086;52.300;4.850;2022-07-06T02:11:02;3.42;;;0.88;;
62994;SDS011;49086;52.300;4.850;2022-07-06T02:13:50;2.65;;;0.73;;
62994;SDS011;49086;52.300;4.850;2022-07-06T02:16:32;1.65;;;0.80;;
62994;SDS011;49086;52.300;4.850;2022-07-06T02:19:05;2.95;;;0.95;;
62994;SDS011;49086;52.300;4.850;2022-07-06T02:21:32;1.85;;;0.60;;
62994;SDS011;49086;52.300;4.850;2022-07-06T02:24:02;3.50;;;0.63;;
62994;SDS011;49086;52.300;4.850;2022-07-06T02:26:32;1.50;;;0.80;;
62994;SDS011;49086;52.300;4.850;2022-07-06T02:29:08;1.95;;;0.60;;
62994;SDS011;49086;52.300;4.850;2022-07-06T02:31:33;2.03;;;1.15;;
62994;SDS011;49086;52.300;4.850;2022-07-06T02:34:14;2.25;;;0.85;;
62994;SDS011;49086;52.300;4.850;2022-07-06T02:36:46;2.45;;;0.80;;
62994;SDS011;49086;52.300;4.850;2022-07-06T02:39:22;3.42;;;0.90;;
62994;SDS011;49086;52.300;4.850;2022-07-06T02:44:38;3.70;;;1.05;;
62994;SDS011;49086;52.300;4.850;2022-07-06T02:47:04;1.83;;;0.70;;
62994;SDS011;49086;52.300;4.850;2022-07-06T02:49:36;1.35;;;0.60;;
62994;SDS011;49086;52.300;4.850;2022-07-06T02:52:04;4.28;;;0.85;;
62994;SDS011;49086;52.300;4.850;2022-07-06T02:54:32;1.33;;;0.60;;
62994;SDS011;49086;52.300;4.850;2022-07-06T02:57:02;3.95;;;0.70;;
62994;SDS011;49086;52.300;4.850;2022-07-06T03:00:05;1.70;;;0.70;;
62994;SDS011;49086;52.300;4.850;2022-07-06T03:02:32;3.13;;;0.70;;
62994;SDS011;49086;52.300;4.850;2022-07-06T03:05:04;2.33;;;0.80;;
62994;SDS011;49086;52.300;4.850;2022-07-06T03:07:35;1.13;;;0.68;;
62994;SDS011;49086;52.300;4.850;2022-07-06T03:10:03;3.40;;;0.70;;
62994;SDS011;49086;52.300;4.850;2022-07-06T03:12:44;4.55;;;0.90;;
62994;SDS011;49086;52.300;4.850;2022-07-06T03:15:30;3.00;;;0.70;;
62994;SDS011;49086;52.300;4.850;2022-07-06T03:18:18;2.35;;;0.77;;
62994;SDS011;49086;52.300;4.850;2022-07-06T03:20:46;3.70;;;0.73;;
62994;SDS011;49086;52.300;4.850;2022-07-06T03:23:19;2.97;;;0.80;;
62994;SDS011;49086;52.300;4.850;2022-07-06T03:25:45;2.15;;;0.63;;
62994;SDS011;49086;52.300;4.850;2022-07-06T03:28:11;3.85;;;0.80;;
62994;SDS011;49086;52.300;4.850;2022-07-06T03:30:42;2.47;;;0.70;;
62994;SDS011;49086;52.300;4.850;2022-07-06T03:33:10;3.72;;;0.90;;
62994;SDS011;49086;52.300;4.850;2022-07-06T03:35:59;3.47;;;1.00;;
62994;SDS011;49086;52.300;4.850;2022-07-06T03:38:25;3.75;;;0.98;;
62994;SDS011;49086;52.300;4.850;2022-07-06T03:40:54;3.42;;;0.80;;
62994;SDS011;49086;52.300;4.850;2022-07-06T03:43:21;2.10;;;0.73;;
62994;SDS011;49086;52.300;4.850;2022-07-06T03:45:49;1.85;;;0.60;;
62994;SDS011;49086;52.300;4.850;2022-07-06T03:48:15;2.63;;;0.68;;
62994;SDS011;49086;52.300;4.850;2022-07-06T03:50:47;4.68;;;0.70;;
62994;SDS011;49086;52.300;4.850;2022-07-06T03:53:18;2.70;;;0.70;;
62994;SDS011;49086;52.300;4.850;2022-07-06T03:55:46;2.45;;;0.80;;
62994;SDS011;49086;52.300;4.850;2022-07-06T03:58:47;3.08;;;0.80;;
62994;SDS011;49086;52.300;4.850;2022-07-06T04:01:34;3.53;;;0.75;;
62994;SDS011;49086;52.300;4.850;2022-07-06T04:04:04;4.10;;;0.70;;
62994;SDS011;49086;52.300;4.850;2022-07-06T04:06:35;3.63;;;1.17;;
62994;SDS011;49086;52.300;4.850;2022-07-06T04:09:05;1.73;;;0.85;;
62994;SDS011;49086;52.300;4.850;2022-07-06T04:11:34;2.50;;;0.82;;
62994;SDS011;49086;52.300;4.850;2022-07-06T04:14:20;5.43;;;0.93;;
62994;SDS011;49086;52.300;4.850;2022-07-06T04:17:13;2.58;;;0.88;;
62994;SDS011;49086;52.300;4.850;2022-07-06T04:19:59;1.88;;;0.70;;
62994;SDS011;49086;52.300;4.850;2022-07-06T04:22:28;3.83;;;0.90;;
62994;SDS011;49086;52.300;4.850;2022-07-06T04:24:54;3.17;;;0.82;;
62994;SDS011;49086;52.300;4.850;2022-07-06T04:27:33;3.15;;;0.90;;
62994;SDS011;49086;52.300;4.850;2022-07-06T04:30:08;3.80;;;0.85;;
62994;SDS011;49086;52.300;4.850;2022-07-06T04:32:35;2.25;;;0.75;;
62994;SDS011;49086;52.300;4.850;2022-07-06T04:35:17;3.47;;;0.90;;
62994;SDS011;49086;52.300;4.850;2022-07-06T04:38:03;3.50;;;0.80;;
62994;SDS011;49086;52.300;4.850;2022-07-06T04:40:55;3.85;;;0.70;;
62994;SDS011;49086;52.300;4.850;2022-07-06T04:43:33;5.70;;;1.08;;
62994;SDS011;49086;52.300;4.850;2022-07-06T04:46:02;4.30;;;1.02;;
62994;SDS011;49086;52.300;4.850;2022-07-06T04:48:56;3.00;;;0.88;;
62994;SDS011;49086;52.300;4.850;2022-07-06T04:51:33;4.32;;;0.90;;
62994;SDS011;49086;52.300;4.850;2022-07-06T04:54:06;1.67;;;0.77;;
62994;SDS011;49086;52.300;4.850;2022-07-06T04:56:35;1.70;;;0.70;;
62994;SDS011;49086;52.300;4.850;2022-07-06T04:59:23;2.85;;;1.00;;
62994;SDS011;49086;52.300;4.850;2022-07-06T05:01:54;4.30;;;1.23;;
62994;SDS011;49086;52.300;4.850;2022-07-06T05:04:48;7.68;;;1.15;;
62994;SDS011;49086;52.300;4.850;2022-07-06T05:07:14;3.65;;;0.73;;
62994;SDS011;49086;52.300;4.850;2022-07-06T05:10:02;3.00;;;0.75;;
62994;SDS011;49086;52.300;4.850;2022-07-06T05:12:53;2.58;;;0.80;;
62994;SDS011;49086;52.300;4.850;2022-07-06T05:18:30;2.47;;;0.90;;
62994;SDS011;49086;52.300;4.850;2022-07-06T05:20:56;3.40;;;1.05;;
62994;SDS011;49086;52.300;4.850;2022-07-06T05:23:26;3.05;;;1.00;;
62994;SDS011;49086;52.300;4.850;2022-07-06T05:25:54;4.40;;;1.02;;
62994;SDS011;49086;52.300;4.850;2022-07-06T05:28:46;4.15;;;0.90;;
62994;SDS011;49086;52.300;4.850;2022-07-06T05:31:46;4.32;;;1.10;;
62994;SDS011;49086;52.300;4.850;2022-07-06T05:34:13;4.30;;;0.80;;
62994;SDS011;49086;52.300;4.850;2022-07-06T05:36:39;5.30;;;1.02;;
62994;SDS011;49086;52.300;4.850;2022-07-06T05:39:09;3.35;;;0.70;;
62994;SDS011;49086;52.300;4.850;2022-07-06T05:41:44;4.70;;;1.10;;
62994;SDS011;49086;52.300;4.850;2022-07-06T05:44:11;10.10;;;1.05;;
62994;SDS011;49086;52.300;4.850;2022-07-06T05:46:42;5.30;;;1.25;;
62994;SDS011;49086;52.300;4.850;2022-07-06T05:49:18;6.22;;;1.02;;
62994;SDS011;49086;52.300;4.850;2022-07-06T05:52:07;6.53;;;1.13;;
62994;SDS011;49086;52.300;4.850;2022-07-06T05:54:39;9.43;;;1.33;;
62994;SDS011;49086;52.300;4.850;2022-07-06T05:57:07;2.90;;;0.80;;
62994;SDS011;49086;52.300;4.850;2022-07-06T06:00:01;2.15;;;0.70;;
62994;SDS011;49086;52.300;4.850;2022-07-06T06:03:15;4.68;;;1.33;;
62994;SDS011;49086;52.300;4.850;2022-07-06T06:05:49;3.00;;;0.80;;
62994;SDS011;49086;52.300;4.850;2022-07-06T06:08:35;3.33;;;0.80;;
62994;SDS011;49086;52.300;4.850;2022-07-06T06:11:23;3.58;;;0.80;;
62994;SDS011;49086;52.300;4.850;2022-07-06T06:13:49;2.38;;;0.77;;
62994;SDS011;49086;52.300;4.850;2022-07-06T06:16:27;2.72;;;0.60;;
62994;SDS011;49086;52.300;4.850;2022-07-06T06:18:56;2.03;;;0.70;;
62994;SDS011;49086;52.300;4.850;2022-07-06T06:24:02;3.58;;;0.80;;
62994;SDS011;49086;52.300;4.850;2022-07-06T06:26:28;4.78;;;1.15;;
62994;SDS011;49086;52.300;4.850;2022-07-06T06:31:28;2.25;;;0.90;;
62994;SDS011;49086;52.300;4.850;2022-07-06T06:33:58;2.28;;;0.70;;
62994;SDS011;49086;52.300;4.850;2022-07-06T06:36:46;4.05;;;0.82;;
62994;SDS011;49086;52.300;4.850;2022-07-06T06:39:12;6.15;;;0.80;;
62994;SDS011;49086;52.300;4.850;2022-07-06T06:41:54;3.17;;;0.70;;
62994;SDS011;49086;52.300;4.850;2022-07-06T06:44:22;3.22;;;0.68;;
62994;SDS011;49086;52.300;4.850;2022-07-06T06:46:52;2.60;;;0.93;;
62994;SDS011;49086;52.300;4.850;2022-07-06T06:49:40;3.00;;;0.90;;
62994;SDS011;49086;52.300;4.850;2022-07-06T06:52:10;1.98;;;0.70;;
62994;SDS011;49086;52.300;4.850;2022-07-06T06:54:42;4.20;;;0.80;;
62994;SDS011;49086;52.300;4.850;2022-07-06T06:57:20;1.27;;;0.70;;
62994;SDS011;49086;52.300;4.850;2022-07-06T07:00:19;1.58;;;0.60;;
62994;SDS011;49086;52.300;4.850;2022-07-06T07:06:29;2.58;;;0.75;;
62994;SDS011;49086;52.300;4.850;2022-07-06T07:09:02;2.13;;;0.77;;
62994;SDS011;49086;52.300;4.850;2022-07-06T07:12:05;1.67;;;0.68;;
62994;SDS011;49086;52.300;4.850;2022-07-06T07:14:44;3.47;;;0.70;;
62994;SDS011;49086;52.300;4.850;2022-07-06T07:17:43;2.72;;;0.70;;
62994;SDS011;49086;52.300;4.850;2022-07-06T07:20:44;3.08;;;0.68;;
62994;SDS011;49086;52.300;4.850;2022-07-06T07:23:32;0.63;;;0.47;;
62994;SDS011;49086;52.300;4.850;2022-07-06T07:26:25;0.85;;;0.47;;
62994;SDS011;49086;52.300;4.850;2022-07-06T07:36:02;5.35;;;0.70;;
62994;SDS011;49086;52.300;4.850;2022-07-06T07:42:39;1.13;;;0.60;;
62994;SDS011;49086;52.300;4.850;2022-07-06T07:48:41;2.55;;;0.70;;
62994;SDS011;49086;52.300;4.850;2022-07-06T07:51:50;1.40;;;0.50;;
62994;SDS011;49086;52.300;4.850;2022-07-06T07:58:38;2.33;;;0.68;;
62994;SDS011;49086;52.300;4.850;2022-07-06T08:01:10;1.95;;;0.60;;
62994;SDS011;49086;52.300;4.850;2022-07-06T08:03:41;2.13;;;0.85;;
62994;SDS011;49086;52.300;4.850;2022-07-06T08:06:17;1.17;;;0.65;;
62994;SDS011;49086;52.300;4.850;2022-07-06T08:09:03;1.35;;;0.50;;
62994;SDS011;49086;52.300;4.850;2022-07-06T08:11:31;1.42;;;0.47;;
62994;SDS011;49086;52.300;4.850;2022-07-06T08:14:01;0.80;;;0.50;;
62994;SDS011;49086;52.300;4.850;2022-07-06T08:16:54;2.17;;;0.60;;
62994;SDS011;49086;52.300;4.850;2022-07-06T08:19:25;1.90;;;0.70;;
62994;SDS011;49086;52.300;4.850;2022-07-06T08:22:07;1.27;;;0.70;;
62994;SDS011;49086;52.300;4.850;2022-07-06T08:24:57;2.58;;;0.80;;
62994;SDS011;49086;52.300;4.850;2022-07-06T08:27:55;1.52;;;0.57;;
62994;SDS011;49086;52.300;4.850;2022-07-06T08:30:31;1.33;;;0.60;;
62994;SDS011;49086;52.300;4.850;2022-07-06T08:33:00;2.17;;;0.63;;
62994;SDS011;49086;52.300;4.850;2022-07-06T08:36:01;1.95;;;0.52;;
62994;SDS011;49086;52.300;4.850;2022-07-06T08:39:24;0.85;;;0.50;;
62994;SDS011;49086;52.300;4.850;2022-07-06T08:42:15;0.57;;;0.43;;
62994;SDS011;49086;52.300;4.850;2022-07-06T08:44:42;2.58;;;0.75;;
62994;SDS011;49086;52.300;4.850;2022-07-06T08:47:15;1.95;;;0.50;;
62994;SDS011;49086;52.300;4.850;2022-07-06T08:49:40;2.38;;;0.50;;
62994;SDS011;49086;52.300;4.850;2022-07-06T08:52:09;0.80;;;0.52;;
62994;SDS011;49086;52.300;4.850;2022-07-06T08:54:48;1.63;;;0.60;;
62994;SDS011;49086;52.300;4.850;2022-07-06T08:57:24;1.38;;;0.60;;
62994;SDS011;49086;52.300;4.850;2022-07-06T08:59:57;3.40;;;0.60;;
62994;SDS011;49086;52.300;4.850;2022-07-06T09:02:26;1.23;;;0.50;;
62994;SDS011;49086;52.300;4.850;2022-07-06T09:05:02;0.98;;;0.57;;
62994;SDS011;49086;52.300;4.850;2022-07-06T09:07:40;4.28;;;0.50;;
62994;SDS011;49086;52.300;4.850;2022-07-06T09:10:20;2.20;;;0.65;;
62994;SDS011;49086;52.300;4.850;2022-07-06T09:12:53;1.08;;;0.60;;
62994;SDS011;49086;52.300;4.850;2022-07-06T09:15:38;1.42;;;0.50;;
62994;SDS011;49086;52.300;4.850;2022-07-06T09:18:23;0.98;;;0.50;;
62994;SDS011;49086;52.300;4.850;2022-07-06T09:21:08;2.22;;;0.60;;
62994;SDS011;49086;52.300;4.850;2022-07-06T09:24:12;2.15;;;0.50;;
62994;SDS011;49086;52.300;4.850;2022-07-06T09:26:44;3.92;;;0.70;;
62994;SDS011;49086;52.300;4.850;2022-07-06T09:29:10;0.77;;;0.50;;
62994;SDS011;49086;52.300;4.850;2022-07-06T09:31:42;1.42;;;0.50;;
62994;SDS011;49086;52.300;4.850;2022-07-06T09:34:42;2.50;;;0.70;;
62994;SDS011;49086;52.300;4.850;2022-07-06T09:37:19;4.38;;;0.60;;
62994;SDS011;49086;52.300;4.850;2022-07-06T09:39:57;3.60;;;0.60;;
62994;SDS011;49086;52.300;4.850;2022-07-06T09:42:27;2.10;;;0.68;;
62994;SDS011;49086;52.300;4.850;2022-07-06T09:44:57;0.88;;;0.55;;
62994;SDS011;49086;52.300;4.850;2022-07-06T09:48:24;1.25;;;0.50;;
62994;SDS011;49086;52.300;4.850;2022-07-06T09:51:29;1.67;;;0.60;;
62994;SDS011;49086;52.300;4.850;2022-07-06T09:53:57;3.13;;;0.80;;
62994;SDS011;49086;52.300;4.850;2022-07-06T09:56:42;1.15;;;0.50;;
62994;SDS011;49086;52.300;4.850;2022-07-06T09:59:12;1.63;;;0.60;;
62994;SDS011;49086;52.300;4.850;2022-07-06T10:01:43;4.15;;;0.70;;
62994;SDS011;49086;52.300;4.850;2022-07-06T10:04:14;1.33;;;0.80;;
62994;SDS011;49086;52.300;4.850;2022-07-06T10:07:14;4.50;;;0.95;;
62994;SDS011;49086;52.300;4.850;2022-07-06T10:09:44;2.92;;;0.75;;
62994;SDS011;49086;52.300;4.850;2022-07-06T10:12:16;2.67;;;0.90;;
62994;SDS011;49086;52.300;4.850;2022-07-06T10:14:50;2.90;;;0.80;;
62994;SDS011;49086;52.300;4.850;2022-07-06T10:17:22;2.03;;;0.60;;
62994;SDS011;49086;52.300;4.850;2022-07-06T10:19:53;1.23;;;0.70;;
62994;SDS011;49086;52.300;4.850;2022-07-06T10:22:20;3.85;;;0.75;;
62994;SDS011;49086;52.300;4.850;2022-07-06T10:24:47;3.83;;;0.85;;
62994;SDS011;49086;52.300;4.850;2022-07-06T10:27:16;3.50;;;0.70;;
62994;SDS011;49086;52.300;4.850;2022-07-06T10:29:51;1.75;;;0.73;;
62994;SDS011;49086;52.300;4.850;2022-07-06T10:32:31;2.58;;;0.60;;
62994;SDS011;49086;52.300;4.850;2022-07-06T10:34:57;2.13;;;0.77;;
62994;SDS011;49086;52.300;4.850;2022-07-06T10:37:30;3.72;;;0.70;;
62994;SDS011;49086;52.300;4.850;2022-07-06T10:40:04;3.13;;;1.13;;
62994;SDS011;49086;52.300;4.850;2022-07-06T10:43:00;2.20;;;0.70;;
62994;SDS011;49086;52.300;4.850;2022-07-06T10:45:50;2.22;;;0.77;;
62994;SDS011;49086;52.300;4.850;2022-07-06T10:48:26;2.15;;;0.90;;
62994;SDS011;49086;52.300;4.850;2022-07-06T10:51:27;1.60;;;0.60;;
62994;SDS011;49086;52.300;4.850;2022-07-06T10:54:01;1.63;;;0.63;;
62994;SDS011;49086;52.300;4.850;2022-07-06T10:56:54;1.80;;;0.73;;
62994;SDS011;49086;52.300;4.850;2022-07-06T10:59:40;2.72;;;0.77;;
62994;SDS011;49086;52.300;4.850;2022-07-06T11:02:29;2.47;;;0.70;;
62994;SDS011;49086;52.300;4.850;2022-07-06T11:06:00;3.17;;;0.80;;
62994;SDS011;49086;52.300;4.850;2022-07-06T11:19:34;2.95;;;0.60;;
62994;SDS011;49086;52.300;4.850;2022-07-06T11:22:26;1.77;;;0.60;;
62994;SDS011;49086;52.300;4.850;2022-07-06T11:25:04;1.95;;;0.80;;
62994;SDS011;49086;52.300;4.850;2022-07-06T11:27:50;1.83;;;0.68;;
62994;SDS011;49086;52.300;4.850;2022-07-06T11:31:11;2.38;;;0.80;;
62994;SDS011;49086;52.300;4.850;2022-07-06T11:34:33;2.65;;;0.85;;
62994;SDS011;49086;52.300;4.850;2022-07-06T11:37:21;2.22;;;0.80;;
62994;SDS011;49086;52.300;4.850;2022-07-06T11:39:50;3.67;;;0.80;;
62994;SDS011;49086;52.300;4.850;2022-07-06T11:42:17;4.70;;;0.93;;
62994;SDS011;49086;52.300;4.850;2022-07-06T11:44:58;3.47;;;0.80;;
62994;SDS011;49086;52.300;4.850;2022-07-06T11:48:07;1.42;;;0.60;;
62994;SDS011;49086;52.300;4.850;2022-07-06T11:53:02;2.70;;;0.90;;
62994;SDS011;49086;52.300;4.850;2022-07-06T11:55:29;2.90;;;0.90;;
62994;SDS011;49086;52.300;4.850;2022-07-06T11:57:57;2.42;;;0.80;;
62994;SDS011;49086;52.300;4.850;2022-07-06T12:03:37;2.88;;;0.70;;
62994;SDS011;49086;52.300;4.850;2022-07-06T12:06:05;3.25;;;0.73;;
62994;SDS011;49086;52.300;4.850;2022-07-06T12:08:47;4.38;;;0.70;;
62994;SDS011;49086;52.300;4.850;2022-07-06T12:11:54;4.40;;;0.82;;
62994;SDS011;49086;52.300;4.850;2022-07-06T12:14:31;2.08;;;0.80;;
62994;SDS011;49086;52.300;4.850;2022-07-06T12:17:52;2.50;;;0.90;;
62994;SDS011;49086;52.300;4.850;2022-07-06T12:20:38;3.42;;;1.63;;
62994;SDS011;49086;52.300;4.850;2022-07-06T12:26:47;2.17;;;0.75;;
62994;SDS011;49086;52.300;4.850;2022-07-06T12:30:07;2.42;;;0.80;;
62994;SDS011;49086;52.300;4.850;2022-07-06T12:32:41;4.22;;;0.90;;
62994;SDS011;49086;52.300;4.850;2022-07-06T12:36:07;4.68;;;0.95;;
62994;SDS011;49086;52.300;4.850;2022-07-06T12:38:58;5.50;;;1.00;;
62994;SDS011;49086;52.300;4.850;2022-07-06T12:41:53;2.50;;;1.10;;
62994;SDS011;49086;52.300;4.850;2022-07-06T12:44:35;6.18;;;0.90;;
62994;SDS011;49086;52.300;4.850;2022-07-06T12:47:56;5.07;;;1.02;;
62994;SDS011;49086;52.300;4.850;2022-07-06T12:50:50;1.67;;;0.80;;
62994;SDS011;49086;52.300;4.850;2022-07-06T12:53:40;3.90;;;1.20;;
62994;SDS011;49086;52.300;4.850;2022-07-06T12:57:18;3.42;;;1.00;;
62994;SDS011;49086;52.300;4.850;2022-07-06T13:00:21;1.95;;;0.85;;
62994;SDS011;49086;52.300;4.850;2022-07-06T13:02:55;3.42;;;0.70;;
62994;SDS011;49086;52.300;4.850;2022-07-06T13:05:24;3.50;;;0.95;;
62994;SDS011;49086;52.300;4.850;2022-07-06T13:08:11;2.10;;;0.80;;
62994;SDS011;49086;52.300;4.850;2022-07-06T13:10:42;4.15;;;0.98;;
62994;SDS011;49086;52.300;4.850;2022-07-06T13:13:44;3.92;;;0.90;;
62994;SDS011;49086;52.300;4.850;2022-07-06T13:16:17;3.58;;;1.00;;
62994;SDS011;49086;52.300;4.850;2022-07-06T13:19:07;3.58;;;1.08;;
62994;SDS011;49086;52.300;4.850;2022-07-06T13:21:33;3.42;;;0.93;;
62994;SDS011;49086;52.300;4.850;2022-07-06T13:24:00;4.07;;;1.05;;
62994;SDS011;49086;52.300;4.850;2022-07-06T13:26:47;7.22;;;1.33;;
62994;SDS011;49086;52.300;4.850;2022-07-06T13:29:12;2.88;;;0.90;;
62994;SDS011;49086;52.300;4.850;2022-07-06T13:31:43;6.57;;;1.23;;
62994;SDS011;49086;52.300;4.850;2022-07-06T13:34:15;3.85;;;1.20;;
62994;SDS011;49086;52.300;4.850;2022-07-06T13:40:09;2.90;;;1.10;;
62994;SDS011;49086;52.300;4.850;2022-07-06T13:43:00;4.95;;;1.40;;
62994;SDS011;49086;52.300;4.850;2022-07-06T13:45:33;3.50;;;1.13;;
62994;SDS011;49086;52.300;4.850;2022-07-06T13:48:09;5.03;;;1.45;;
62994;SDS011;49086;52.300;4.850;2022-07-06T13:51:02;5.00;;;1.52;;
62994;SDS011;49086;52.300;4.850;2022-07-06T13:54:22;8.38;;;1.63;;
62994;SDS011;49086;52.300;4.850;2022-07-06T13:56:54;5.68;;;2.00;;
62994;SDS011;49086;52.300;4.850;2022-07-06T13:59:49;5.20;;;1.80;;
62994;SDS011;49086;52.300;4.850;2022-07-06T14:02:35;3.05;;;1.70;;
62994;SDS011;49086;52.300;4.850;2022-07-06T14:05:23;4.50;;;1.65;;
62994;SDS011;49086;52.300;4.850;2022-07-06T14:08:16;5.10;;;2.20;;
62994;SDS011;49086;52.300;4.850;2022-07-06T14:14:37;7.47;;;2.90;;
62994;SDS011;49086;52.300;4.850;2022-07-06T14:17:25;6.60;;;3.10;;
62994;SDS011;49086;52.300;4.850;2022-07-06T14:19:56;7.28;;;3.42;;
62994;SDS011;49086;52.300;4.850;2022-07-06T14:23:07;10.98;;;3.58;;
62994;SDS011;49086;52.300;4.850;2022-07-06T14:26:02;9.80;;;3.58;;
62994;SDS011;49086;52.300;4.850;2022-07-06T14:28:45;8.50;;;3.30;;
62994;SDS011;49086;52.300;4.850;2022-07-06T14:31:54;10.45;;;4.63;;
62994;SDS011;49086;52.300;4.850;2022-07-06T14:34:19;8.80;;;4.35;;
62994;SDS011;49086;52.300;4.850;2022-07-06T14:44:05;7.43;;;3.38;;
62994;SDS011;49086;52.300;4.850;2022-07-06T14:46:42;9.23;;;4.10;;
62994;SDS011;49086;52.300;4.850;2022-07-06T14:49:13;8.80;;;4.32;;
62994;SDS011;49086;52.300;4.850;2022-07-06T15:02:37;9.95;;;4.25;;
62994;SDS011;49086;52.300;4.850;2022-07-06T15:09:19;6.50;;;3.30;;
62994;SDS011;49086;52.300;4.850;2022-07-06T15:12:38;6.97;;;2.63;;
62994;SDS011;49086;52.300;4.850;2022-07-06T15:15:09;8.13;;;3.25;;
62994;SDS011;49086;52.300;4.850;2022-07-06T15:24:14;3.92;;;1.73;;
62994;SDS011;49086;52.300;4.850;2022-07-06T15:27:03;6.32;;;2.15;;
62994;SDS011;49086;52.300;4.850;2022-07-06T15:30:25;6.53;;;2.08;;
62994;SDS011;49086;52.300;4.850;2022-07-06T15:33:19;8.63;;;1.98;;
62994;SDS011;49086;52.300;4.850;2022-07-06T15:36:16;3.67;;;1.50;;
62994;SDS011;49086;52.300;4.850;2022-07-06T15:39:15;5.03;;;1.90;;
62994;SDS011;49086;52.300;4.850;2022-07-06T15:41:44;3.40;;;1.50;;
62994;SDS011;49086;52.300;4.850;2022-07-06T15:44:24;5.43;;;1.60;;
62994;SDS011;49086;52.300;4.850;2022-07-06T15:47:14;4.70;;;1.50;;
62994;SDS011;49086;52.300;4.850;2022-07-06T15:49:49;3.55;;;1.33;;
62994;SDS011;49086;52.300;4.850;2022-07-06T15:56:02;6.40;;;2.00;;
62994;SDS011;49086;52.300;4.850;2022-07-06T16:01:42;6.50;;;1.73;;
62994;SDS011;49086;52.300;4.850;2022-07-06T16:04:50;5.97;;;1.58;;
62994;SDS011;49086;52.300;4.850;2022-07-06T16:08:00;9.02;;;2.17;;
62994;SDS011;49086;52.300;4.850;2022-07-06T16:14:23;12.40;;;2.00;;
62994;SDS011;49086;52.300;4.850;2022-07-06T16:17:40;5.93;;;1.95;;
62994;SDS011;49086;52.300;4.850;2022-07-06T16:20:16;4.47;;;1.90;;
62994;SDS011;49086;52.300;4.850;2022-07-06T16:22:53;7.22;;;1.98;;
62994;SDS011;49086;52.300;4.850;2022-07-06T16:28:50;6.03;;;1.73;;
62994;SDS011;49086;52.300;4.850;2022-07-06T16:31:25;6.00;;;2.00;;
62994;SDS011;49086;52.300;4.850;2022-07-06T16:34:53;7.30;;;2.03;;
62994;SDS011;49086;52.300;4.850;2022-07-06T16:37:39;7.30;;;2.92;;
62994;SDS011;49086;52.300;4.850;2022-07-06T16:40:10;6.05;;;2.10;;
62994;SDS011;49086;52.300;4.850;2022-07-06T16:43:03;5.93;;;1.80;;
62994;SDS011;49086;52.300;4.850;2022-07-06T16:45:30;5.18;;;2.03;;
62994;SDS011;49086;52.300;4.850;2022-07-06T16:49:00;5.43;;;2.38;;
62994;SDS011;49086;52.300;4.850;2022-07-06T16:52:07;4.68;;;2.13;;
62994;SDS011;49086;52.300;4.850;2022-07-06T16:55:36;5.10;;;2.03;;
62994;SDS011;49086;52.300;4.850;2022-07-06T16:58:31;5.18;;;2.15;;
62994;SDS011;49086;52.300;4.850;2022-07-06T17:00:59;4.40;;;1.98;;
62994;SDS011;49086;52.300;4.850;2022-07-06T17:03:30;8.05;;;2.30;;
62994;SDS011;49086;52.300;4.850;2022-07-06T17:06:42;5.65;;;2.00;;
62994;SDS011;49086;52.300;4.850;2022-07-06T17:09:08;6.53;;;2.03;;
62994;SDS011;49086;52.300;4.850;2022-07-06T17:11:33;3.67;;;2.00;;
62994;SDS011;49086;52.300;4.850;2022-07-06T17:14:39;7.88;;;3.10;;
62994;SDS011;49086;52.300;4.850;2022-07-06T17:21:19;5.22;;;1.70;;
62994;SDS011;49086;52.300;4.850;2022-07-06T17:27:05;5.47;;;1.98;;
62994;SDS011;49086;52.300;4.850;2022-07-06T17:29:49;4.32;;;1.90;;
62994;SDS011;49086;52.300;4.850;2022-07-06T17:32:22;6.47;;;1.70;;
62994;SDS011;49086;52.300;4.850;2022-07-06T17:35:11;3.83;;;1.38;;
62994;SDS011;49086;52.300;4.850;2022-07-06T17:37:42;5.13;;;2.40;;
62994;SDS011;49086;52.300;4.850;2022-07-06T17:47:16;4.35;;;1.48;;
62994;SDS011;49086;52.300;4.850;2022-07-06T17:53:45;7.25;;;1.98;;
62994;SDS011;49086;52.300;4.850;2022-07-06T17:56:22;5.95;;;1.80;;
62994;SDS011;49086;52.300;4.850;2022-07-06T17:58:54;5.47;;;2.08;;
62994;SDS011;49086;52.300;4.850;2022-07-06T18:01:28;5.90;;;1.75;;
62994;SDS011;49086;52.300;4.850;2022-07-06T18:04:28;4.85;;;1.90;;
62994;SDS011;49086;52.300;4.850;2022-07-06T18:13:21;5.38;;;1.80;;
62994;SDS011;49086;52.300;4.850;2022-07-06T18:16:32;5.13;;;1.88;;
62994;SDS011;49086;52.300;4.850;2022-07-06T18:19:37;3.78;;;1.90;;
62994;SDS011;49086;52.300;4.850;2022-07-06T18:22:24;5.07;;;2.20;;